sensor_id;sensor_type;location;lat;lon;timestamp;pressure;altitude;pressure_sealevel;temperature;humidity
79645;BME280;69117;47.148;18.954;2023-04-16T00:00:32;100272.50;;;5.72;0.00
79645;BME280;69117;47.148;18.954;2023-04-16T00:03:34;100291.91;;;5.81;0.00
79645;BME280;69117;47.148;18.954;2023-04-16T00:06:36;100299.56;;;5.84;0.00
79645;BME280;69117;47.148;18.954;2023-04-16T00:09:37;100289.75;;;5.74;0.00
79645;BME280;69117;47.148;18.954;2023-04-16T00:12:39;100269.47;;;5.65;0.00
79645;BME280;69117;47.148;18.954;2023-04-16T00:15:41;100282.25;;;5.70;0.00
79645;BME280;69117;47.148;18.954;2023-04-16T00:18:43;100269.13;;;5.59;0.00
79645;BME280;69117;47.148;18.954;2023-04-16T00:21:44;100280.50;;;5.82;0.00
79645;BME280;69117;47.148;18.954;2023-04-16T00:24:46;100267.03;;;5.75;0.00
79645;BME280;69117;47.148;18.954;2023-04-16T00:27:47;100282.25;;;5.70;0.00
79645;BME280;69117;47.148;18.954;2023-04-16T00:30:49;100269.25;;;5.57;0.40
79645;BME280;69117;47.148;18.954;2023-04-16T00:33:52;100254.03;;;5.38;0.23
79645;BME280;69117;47.148;18.954;2023-04-16T00:36:53;100278.63;;;5.48;0.00
79645;BME280;69117;47.148;18.954;2023-04-16T00:39:55;100275.25;;;5.46;0.85
79645;BME280;69117;47.148;18.954;2023-04-16T00:42:56;100282.53;;;5.43;0.97
79645;BME280;69117;47.148;18.954;2023-04-16T00:45:58;100294.25;;;5.61;1.16
79645;BME280;69117;47.148;18.954;2023-04-16T00:49:01;100285.56;;;5.61;2.24
79645;BME280;69117;47.148;18.954;2023-04-16T00:52:03;100293.19;;;5.64;3.41
79645;BME280;69117;47.148;18.954;2023-04-16T00:55:06;100303.31;;;5.57;3.89
79645;BME280;69117;47.148;18.954;2023-04-16T00:58:08;100299.44;;;5.50;4.59
79645;BME280;69117;47.148;18.954;2023-04-16T01:01:10;100296.81;;;5.50;6.53
79645;BME280;69117;47.148;18.954;2023-04-16T01:04:11;100300.25;;;5.39;7.30
79645;BME280;69117;47.148;18.954;2023-04-16T01:07:13;100298.78;;;5.35;7.86
79645;BME280;69117;47.148;18.954;2023-04-16T01:10:15;100305.28;;;5.42;7.88
79645;BME280;69117;47.148;18.954;2023-04-16T01:13:16;100302.75;;;5.41;8.55
79645;BME280;69117;47.148;18.954;2023-04-16T01:16:18;100308.28;;;5.25;8.85
79645;BME280;69117;47.148;18.954;2023-04-16T01:19:20;100311.44;;;5.17;8.95
79645;BME280;69117;47.148;18.954;2023-04-16T01:22:21;100314.78;;;5.19;8.94
79645;BME280;69117;47.148;18.954;2023-04-16T01:25:23;100322.25;;;5.13;9.20
79645;BME280;69117;47.148;18.954;2023-04-16T01:28:24;100319.06;;;5.20;9.92
79645;BME280;69117;47.148;18.954;2023-04-16T01:31:26;100324.72;;;5.27;10.36
79645;BME280;69117;47.148;18.954;2023-04-16T01:34:28;100323.38;;;5.21;10.10
79645;BME280;69117;47.148;18.954;2023-04-16T01:37:29;100315.97;;;5.15;9.80
79645;BME280;69117;47.148;18.954;2023-04-16T01:40:31;100308.88;;;5.28;10.12
79645;BME280;69117;47.148;18.954;2023-04-16T01:43:33;100310.66;;;5.28;10.16
79645;BME280;69117;47.148;18.954;2023-04-16T01:46:35;100317.53;;;5.42;11.70
79645;BME280;69117;47.148;18.954;2023-04-16T01:49:36;100320.53;;;5.48;18.17
79645;BME280;69117;47.148;18.954;2023-04-16T01:52:38;100309.22;;;5.48;19.98
79645;BME280;69117;47.148;18.954;2023-04-16T01:55:40;100323.44;;;5.68;20.36
79645;BME280;69117;47.148;18.954;2023-04-16T01:58:41;100281.22;;;5.48;20.42
79645;BME280;69117;47.148;18.954;2023-04-16T02:01:43;100294.84;;;5.65;20.39
79645;BME280;69117;47.148;18.954;2023-04-16T02:04:44;100313.97;;;5.78;20.68
79645;BME280;69117;47.148;18.954;2023-04-16T02:07:46;100315.97;;;5.74;20.85
79645;BME280;69117;47.148;18.954;2023-04-16T02:10:49;100306.16;;;5.65;20.88
79645;BME280;69117;47.148;18.954;2023-04-16T02:13:50;100317.75;;;5.63;21.16
79645;BME280;69117;47.148;18.954;2023-04-16T02:16:52;100318.75;;;5.49;21.19
79645;BME280;69117;47.148;18.954;2023-04-16T02:19:54;100293.22;;;5.16;21.74
79645;BME280;69117;47.148;18.954;2023-04-16T02:22:55;100324.81;;;5.25;22.18
79645;BME280;69117;47.148;18.954;2023-04-16T02:25:57;100337.69;;;5.28;22.59
79645;BME280;69117;47.148;18.954;2023-04-16T02:28:59;100323.22;;;5.36;22.66
79645;BME280;69117;47.148;18.954;2023-04-16T02:32:00;100285.66;;;5.24;22.90
79645;BME280;69117;47.148;18.954;2023-04-16T02:35:02;100316.50;;;5.32;23.67
79645;BME280;69117;47.148;18.954;2023-04-16T02:38:04;100317.03;;;5.37;23.97
79645;BME280;69117;47.148;18.954;2023-04-16T02:41:06;100315.97;;;5.39;24.21
79645;BME280;69117;47.148;18.954;2023-04-16T02:44:08;100321.66;;;5.33;24.56
79645;BME280;69117;47.148;18.954;2023-04-16T02:47:09;100327.81;;;5.32;23.86
79645;BME280;69117;47.148;18.954;2023-04-16T02:50:11;100324.28;;;5.33;24.66
79645;BME280;69117;47.148;18.954;2023-04-16T02:53:12;100303.41;;;5.08;24.50
79645;BME280;69117;47.148;18.954;2023-04-16T02:56:14;100344.94;;;5.25;24.90
79645;BME280;69117;47.148;18.954;2023-04-16T02:59:16;100308.66;;;5.08;25.38
79645;BME280;69117;47.148;18.954;2023-04-16T03:02:17;100311.66;;;5.14;26.32
79645;BME280;69117;47.148;18.954;2023-04-16T03:05:19;100362.00;;;5.31;26.62
79645;BME280;69117;47.148;18.954;2023-04-16T03:08:21;100341.13;;;5.29;26.56
79645;BME280;69117;47.148;18.954;2023-04-16T03:11:22;100357.66;;;5.42;26.24
79645;BME280;69117;47.148;18.954;2023-04-16T03:14:24;100353.03;;;5.46;26.99
79645;BME280;69117;47.148;18.954;2023-04-16T03:17:26;100340.38;;;5.40;26.98
79645;BME280;69117;47.148;18.954;2023-04-16T03:20:27;100330.94;;;5.37;27.05
79645;BME280;69117;47.148;18.954;2023-04-16T03:23:29;100363.22;;;5.62;27.10
79645;BME280;69117;47.148;18.954;2023-04-16T03:26:31;100361.78;;;5.58;27.19
79645;BME280;69117;47.148;18.954;2023-04-16T03:29:35;100366.19;;;5.57;27.51
79645;BME280;69117;47.148;18.954;2023-04-16T03:32:37;100348.84;;;5.43;27.69
79645;BME280;69117;47.148;18.954;2023-04-16T03:35:39;100366.50;;;5.53;27.44
79645;BME280;69117;47.148;18.954;2023-04-16T03:38:40;100377.72;;;5.55;27.77
79645;BME280;69117;47.148;18.954;2023-04-16T03:41:42;100355.66;;;5.46;27.66
79645;BME280;69117;47.148;18.954;2023-04-16T03:44:44;100366.63;;;5.51;27.81
79645;BME280;69117;47.148;18.954;2023-04-16T03:47:45;100384.53;;;5.57;27.97
79645;BME280;69117;47.148;18.954;2023-04-16T03:50:52;100389.78;;;5.57;27.75
79645;BME280;69117;47.148;18.954;2023-04-16T03:53:54;100386.25;;;5.45;27.86
79645;BME280;69117;47.148;18.954;2023-04-16T03:56:56;100386.72;;;5.50;27.95
79645;BME280;69117;47.148;18.954;2023-04-16T03:59:58;100400.56;;;5.53;27.92
79645;BME280;69117;47.148;18.954;2023-04-16T04:02:59;100403.19;;;5.53;27.68
79645;BME280;69117;47.148;18.954;2023-04-16T04:06:06;100390.97;;;5.64;27.74
79645;BME280;69117;47.148;18.954;2023-04-16T04:09:08;100401.63;;;5.74;27.63
79645;BME280;69117;47.148;18.954;2023-04-16T04:12:10;100400.78;;;5.73;27.42
79645;BME280;69117;47.148;18.954;2023-04-16T04:15:12;100408.13;;;5.81;27.34
79645;BME280;69117;47.148;18.954;2023-04-16T04:18:13;100396.94;;;5.90;27.39
79645;BME280;69117;47.148;18.954;2023-04-16T04:21:15;100387.53;;;5.88;27.06
79645;BME280;69117;47.148;18.954;2023-04-16T04:24:16;100406.44;;;6.04;26.96
79645;BME280;69117;47.148;18.954;2023-04-16T04:27:18;100409.56;;;6.09;26.90
79645;BME280;69117;47.148;18.954;2023-04-16T04:30:19;100417.19;;;6.12;26.67
79645;BME280;69117;47.148;18.954;2023-04-16T04:33:21;100414.22;;;6.17;26.63
79645;BME280;69117;47.148;18.954;2023-04-16T04:36:23;100404.53;;;6.06;26.47
79645;BME280;69117;47.148;18.954;2023-04-16T04:39:24;100413.50;;;6.15;26.27
79645;BME280;69117;47.148;18.954;2023-04-16T04:42:26;100409.19;;;6.14;26.38
79645;BME280;69117;47.148;18.954;2023-04-16T04:45:28;100422.34;;;6.25;26.30
79645;BME280;69117;47.148;18.954;2023-04-16T04:48:32;100419.88;;;6.35;26.24
79645;BME280;69117;47.148;18.954;2023-04-16T04:51:33;100417.97;;;6.37;26.20
79645;BME280;69117;47.148;18.954;2023-04-16T04:54:35;100428.13;;;6.41;26.30
79645;BME280;69117;47.148;18.954;2023-04-16T04:57:37;100426.22;;;6.43;26.57
79645;BME280;69117;47.148;18.954;2023-04-16T05:00:38;100433.50;;;6.51;26.53
79645;BME280;69117;47.148;18.954;2023-04-16T05:03:40;100430.75;;;6.53;26.65
79645;BME280;69117;47.148;18.954;2023-04-16T05:06:42;100412.75;;;6.48;26.30
79645;BME280;69117;47.148;18.954;2023-04-16T05:09:44;100418.38;;;6.55;26.44
79645;BME280;69117;47.148;18.954;2023-04-16T05:12:46;100405.13;;;6.56;26.33
79645;BME280;69117;47.148;18.954;2023-04-16T05:15:51;100423.63;;;6.66;25.94
79645;BME280;69117;47.148;18.954;2023-04-16T05:18:52;100429.59;;;6.68;24.87
79645;BME280;69117;47.148;18.954;2023-04-16T05:21:56;100433.66;;;6.72;24.78
79645;BME280;69117;47.148;18.954;2023-04-16T05:24:57;100432.72;;;6.73;24.54
79645;BME280;69117;47.148;18.954;2023-04-16T05:27:59;100425.44;;;6.77;25.03
79645;BME280;69117;47.148;18.954;2023-04-16T05:31:01;100429.50;;;6.81;25.60
79645;BME280;69117;47.148;18.954;2023-04-16T05:34:02;100419.59;;;6.73;26.16
79645;BME280;69117;47.148;18.954;2023-04-16T05:37:04;100430.19;;;6.83;26.33
79645;BME280;69117;47.148;18.954;2023-04-16T05:40:06;100422.47;;;6.81;26.90
79645;BME280;69117;47.148;18.954;2023-04-16T05:43:08;100416.72;;;6.99;27.96
79645;BME280;69117;47.148;18.954;2023-04-16T05:46:10;100424.00;;;7.18;28.59
79645;BME280;69117;47.148;18.954;2023-04-16T05:49:11;100421.72;;;7.24;27.97
79645;BME280;69117;47.148;18.954;2023-04-16T05:52:13;100429.22;;;7.40;27.84
79645;BME280;69117;47.148;18.954;2023-04-16T05:55:15;100425.63;;;7.52;27.22
79645;BME280;69117;47.148;18.954;2023-04-16T05:58:17;100414.34;;;7.62;26.54
79645;BME280;69117;47.148;18.954;2023-04-16T06:01:18;100410.97;;;7.71;25.61
79645;BME280;69117;47.148;18.954;2023-04-16T06:04:20;100425.66;;;7.85;24.66
79645;BME280;69117;47.148;18.954;2023-04-16T06:07:22;100433.19;;;8.10;23.55
79645;BME280;69117;47.148;18.954;2023-04-16T06:10:23;100438.09;;;8.15;22.80
79645;BME280;69117;47.148;18.954;2023-04-16T06:13:25;100447.28;;;8.20;21.52
79645;BME280;69117;47.148;18.954;2023-04-16T06:16:27;100432.25;;;8.32;21.25
79645;BME280;69117;47.148;18.954;2023-04-16T06:19:29;100434.50;;;8.37;21.32
79645;BME280;69117;47.148;18.954;2023-04-16T06:22:30;100444.53;;;8.43;21.06
79645;BME280;69117;47.148;18.954;2023-04-16T06:25:33;100444.28;;;8.46;20.22
79645;BME280;69117;47.148;18.954;2023-04-16T06:28:34;100441.06;;;8.63;20.09
79645;BME280;69117;47.148;18.954;2023-04-16T06:31:36;100440.22;;;8.84;19.54
79645;BME280;69117;47.148;18.954;2023-04-16T06:34:38;100441.84;;;9.06;19.64
79645;BME280;69117;47.148;18.954;2023-04-16T06:37:39;100417.59;;;9.12;18.41
79645;BME280;69117;47.148;18.954;2023-04-16T06:40:41;100435.97;;;9.33;15.99
79645;BME280;69117;47.148;18.954;2023-04-16T06:43:43;100421.78;;;9.14;14.94
79645;BME280;69117;47.148;18.954;2023-04-16T06:46:45;100426.91;;;9.26;13.35
79645;BME280;69117;47.148;18.954;2023-04-16T06:49:46;100427.38;;;9.40;12.62
79645;BME280;69117;47.148;18.954;2023-04-16T06:52:48;100425.06;;;9.47;12.20
79645;BME280;69117;47.148;18.954;2023-04-16T06:55:50;100436.81;;;9.43;12.52
79645;BME280;69117;47.148;18.954;2023-04-16T06:58:52;100444.63;;;9.54;12.42
79645;BME280;69117;47.148;18.954;2023-04-16T07:01:53;100440.25;;;9.84;12.26
79645;BME280;69117;47.148;18.954;2023-04-16T07:04:55;100447.88;;;9.97;12.18
79645;BME280;69117;47.148;18.954;2023-04-16T07:07:58;100434.84;;;10.05;12.34
79645;BME280;69117;47.148;18.954;2023-04-16T07:10:59;100456.94;;;10.33;12.48
79645;BME280;69117;47.148;18.954;2023-04-16T07:14:01;100450.13;;;10.30;12.93
79645;BME280;69117;47.148;18.954;2023-04-16T07:17:03;100448.31;;;10.50;13.16
79645;BME280;69117;47.148;18.954;2023-04-16T07:20:05;100449.97;;;10.51;12.91
79645;BME280;69117;47.148;18.954;2023-04-16T07:23:06;100453.75;;;10.29;12.79
79645;BME280;69117;47.148;18.954;2023-04-16T07:26:08;100468.34;;;10.53;12.76
79645;BME280;69117;47.148;18.954;2023-04-16T07:29:10;100478.19;;;10.61;12.60
79645;BME280;69117;47.148;18.954;2023-04-16T07:32:12;100476.91;;;10.74;12.47
79645;BME280;69117;47.148;18.954;2023-04-16T07:35:16;100471.91;;;10.62;12.66
79645;BME280;69117;47.148;18.954;2023-04-16T07:38:17;100487.22;;;10.58;12.81
79645;BME280;69117;47.148;18.954;2023-04-16T07:41:19;100483.59;;;10.69;12.55
79645;BME280;69117;47.148;18.954;2023-04-16T07:44:20;100472.94;;;10.41;12.84
79645;BME280;69117;47.148;18.954;2023-04-16T07:47:22;100490.56;;;10.60;12.56
79645;BME280;69117;47.148;18.954;2023-04-16T07:50:24;100474.69;;;10.70;12.48
79645;BME280;69117;47.148;18.954;2023-04-16T07:53:26;100477.47;;;10.78;12.61
79645;BME280;69117;47.148;18.954;2023-04-16T07:56:27;100474.66;;;10.89;12.43
79645;BME280;69117;47.148;18.954;2023-04-16T07:59:29;100472.09;;;10.97;12.14
79645;BME280;69117;47.148;18.954;2023-04-16T08:02:36;100488.41;;;11.30;12.20
79645;BME280;69117;47.148;18.954;2023-04-16T08:05:38;100498.16;;;11.30;12.11
79645;BME280;69117;47.148;18.954;2023-04-16T08:08:40;100488.41;;;11.58;12.10
79645;BME280;69117;47.148;18.954;2023-04-16T08:11:42;100499.00;;;11.85;11.98
79645;BME280;69117;47.148;18.954;2023-04-16T08:14:44;100498.22;;;11.75;11.88
79645;BME280;69117;47.148;18.954;2023-04-16T08:17:46;100499.00;;;11.58;11.81
79645;BME280;69117;47.148;18.954;2023-04-16T08:20:47;100491.53;;;11.43;11.93
79645;BME280;69117;47.148;18.954;2023-04-16T08:23:49;100519.16;;;11.31;12.90
79645;BME280;69117;47.148;18.954;2023-04-16T08:26:50;100508.50;;;11.23;13.50
79645;BME280;69117;47.148;18.954;2023-04-16T08:29:52;100491.09;;;11.20;13.57
79645;BME280;69117;47.148;18.954;2023-04-16T08:32:54;100491.16;;;11.01;13.70
79645;BME280;69117;47.148;18.954;2023-04-16T08:35:56;100482.06;;;11.13;13.56
79645;BME280;69117;47.148;18.954;2023-04-16T08:38:58;100500.91;;;11.38;13.34
79645;BME280;69117;47.148;18.954;2023-04-16T08:42:01;100496.75;;;11.35;13.40
79645;BME280;69117;47.148;18.954;2023-04-16T08:45:13;100506.06;;;11.39;13.44
79645;BME280;69117;47.148;18.954;2023-04-16T08:48:17;100502.41;;;11.50;13.14
79645;BME280;69117;47.148;18.954;2023-04-16T08:51:22;100493.75;;;11.76;13.04
79645;BME280;69117;47.148;18.954;2023-04-16T08:54:33;100484.22;;;11.83;12.87
79645;BME280;69117;47.148;18.954;2023-04-16T08:57:46;100503.72;;;12.45;13.09
79645;BME280;69117;47.148;18.954;2023-04-16T09:00:49;100513.63;;;12.61;12.96
79645;BME280;69117;47.148;18.954;2023-04-16T09:03:51;100503.84;;;12.61;13.02
79645;BME280;69117;47.148;18.954;2023-04-16T09:06:57;100510.44;;;12.75;13.03
79645;BME280;69117;47.148;18.954;2023-04-16T09:09:59;100498.25;;;13.17;12.81
79645;BME280;69117;47.148;18.954;2023-04-16T09:13:02;100506.88;;;14.04;12.79
79645;BME280;69117;47.148;18.954;2023-04-16T09:16:06;100483.25;;;13.76;12.30
79645;BME280;69117;47.148;18.954;2023-04-16T09:19:08;100494.47;;;14.20;12.12
79645;BME280;69117;47.148;18.954;2023-04-16T09:22:10;100488.53;;;14.68;11.84
79645;BME280;69117;47.148;18.954;2023-04-16T09:25:13;100499.16;;;14.84;10.67
79645;BME280;69117;47.148;18.954;2023-04-16T09:28:44;100492.28;;;15.14;9.95
79645;BME280;69117;47.148;18.954;2023-04-16T09:32:03;100496.38;;;15.33;10.47
79645;BME280;69117;47.148;18.954;2023-04-16T09:35:06;100484.53;;;15.83;9.02
79645;BME280;69117;47.148;18.954;2023-04-16T09:38:07;100491.13;;;15.56;67.91
79645;BME280;69117;47.148;18.954;2023-04-16T09:41:09;100495.97;;;14.97;68.36
79645;BME280;69117;47.148;18.954;2023-04-16T09:44:10;100472.28;;;15.18;67.80
79645;BME280;69117;47.148;18.954;2023-04-16T09:47:12;100492.03;;;15.79;68.03
79645;BME280;69117;47.148;18.954;2023-04-16T09:50:16;100469.00;;;15.55;67.22
79645;BME280;69117;47.148;18.954;2023-04-16T09:53:26;100502.34;;;15.43;67.83
79645;BME280;69117;47.148;18.954;2023-04-16T09:56:28;100482.09;;;15.18;66.53
79645;BME280;69117;47.148;18.954;2023-04-16T09:59:30;100501.75;;;15.08;67.28
79645;BME280;69117;47.148;18.954;2023-04-16T10:02:35;100500.06;;;15.24;66.09
79645;BME280;69117;47.148;18.954;2023-04-16T10:05:40;100484.97;;;15.00;66.74
79645;BME280;69117;47.148;18.954;2023-04-16T10:08:46;100493.91;;;15.15;68.55
79645;BME280;69117;47.148;18.954;2023-04-16T10:11:50;100490.41;;;15.23;66.46
79645;BME280;69117;47.148;18.954;2023-04-16T10:14:52;100469.47;;;15.20;66.16
79645;BME280;69117;47.148;18.954;2023-04-16T10:17:54;100484.47;;;15.52;64.71
79645;BME280;69117;47.148;18.954;2023-04-16T10:20:57;100485.84;;;14.92;65.65
79645;BME280;69117;47.148;18.954;2023-04-16T10:23:59;100476.09;;;15.63;65.86
79645;BME280;69117;47.148;18.954;2023-04-16T10:27:01;100463.66;;;15.95;65.39
79645;BME280;69117;47.148;18.954;2023-04-16T10:30:04;100479.13;;;16.60;63.88
79645;BME280;69117;47.148;18.954;2023-04-16T10:33:08;100452.06;;;16.86;61.43
79645;BME280;69117;47.148;18.954;2023-04-16T10:36:15;100468.53;;;16.67;61.17
79645;BME280;69117;47.148;18.954;2023-04-16T10:39:19;100458.31;;;17.89;59.21
79645;BME280;69117;47.148;18.954;2023-04-16T10:42:21;100458.97;;;18.62;56.60
79645;BME280;69117;47.148;18.954;2023-04-16T10:45:30;100468.97;;;19.51;54.10
79645;BME280;69117;47.148;18.954;2023-04-16T10:48:34;100467.53;;;19.07;53.96
79645;BME280;69117;47.148;18.954;2023-04-16T10:54:58;100463.28;;;18.63;52.85
79645;BME280;69117;47.148;18.954;2023-04-16T10:57:59;100457.22;;;18.05;52.70
79645;BME280;69117;47.148;18.954;2023-04-16T11:01:06;100450.09;;;17.76;54.13
79645;BME280;69117;47.148;18.954;2023-04-16T11:07:33;100454.97;;;17.51;54.25
79645;BME280;69117;47.148;18.954;2023-04-16T11:10:38;100439.66;;;17.96;52.80
79645;BME280;69117;47.148;18.954;2023-04-16T11:13:42;100448.38;;;17.83;54.60
79645;BME280;69117;47.148;18.954;2023-04-16T11:16:45;100450.69;;;17.71;54.52
79645;BME280;69117;47.148;18.954;2023-04-16T11:19:47;100451.88;;;17.83;56.23
79645;BME280;69117;47.148;18.954;2023-04-16T11:22:53;100452.13;;;17.89;55.67
79645;BME280;69117;47.148;18.954;2023-04-16T11:25:55;100430.06;;;17.65;53.15
79645;BME280;69117;47.148;18.954;2023-04-16T11:28:58;100455.59;;;17.53;56.90
79645;BME280;69117;47.148;18.954;2023-04-16T11:32:00;100430.63;;;17.46;56.03
79645;BME280;69117;47.148;18.954;2023-04-16T11:35:12;100441.34;;;17.82;55.13
79645;BME280;69117;47.148;18.954;2023-04-16T11:38:14;100447.81;;;17.73;55.68
79645;BME280;69117;47.148;18.954;2023-04-16T11:41:19;100441.63;;;17.87;55.50
79645;BME280;69117;47.148;18.954;2023-04-16T11:44:26;100443.84;;;18.05;54.87
79645;BME280;69117;47.148;18.954;2023-04-16T11:47:29;100448.81;;;17.87;54.55
79645;BME280;69117;47.148;18.954;2023-04-16T11:50:32;100428.31;;;17.94;53.96
79645;BME280;69117;47.148;18.954;2023-04-16T11:53:35;100443.28;;;18.59;54.27
79645;BME280;69117;47.148;18.954;2023-04-16T11:56:37;100443.47;;;19.14;52.46
79645;BME280;69117;47.148;18.954;2023-04-16T11:59:45;100430.56;;;19.85;50.14
79645;BME280;69117;47.148;18.954;2023-04-16T12:03:03;100435.81;;;19.59;49.82
79645;BME280;69117;47.148;18.954;2023-04-16T12:06:06;100436.28;;;19.21;49.79
79645;BME280;69117;47.148;18.954;2023-04-16T12:09:24;100432.16;;;18.84;50.62
79645;BME280;69117;47.148;18.954;2023-04-16T12:12:28;100429.03;;;18.73;50.66
79645;BME280;69117;47.148;18.954;2023-04-16T12:15:49;100436.13;;;18.66;52.04
79645;BME280;69117;47.148;18.954;2023-04-16T12:18:58;100434.06;;;18.34;51.00
79645;BME280;69117;47.148;18.954;2023-04-16T12:22:00;100431.59;;;18.88;49.92
79645;BME280;69117;47.148;18.954;2023-04-16T12:25:23;100423.56;;;18.88;49.57
79645;BME280;69117;47.148;18.954;2023-04-16T12:28:30;100408.47;;;19.15;51.17
79645;BME280;69117;47.148;18.954;2023-04-16T12:31:37;100424.75;;;19.27;49.96
79645;BME280;69117;47.148;18.954;2023-04-16T12:34:49;100409.09;;;20.78;46.85
79645;BME280;69117;47.148;18.954;2023-04-16T12:37:51;100416.53;;;21.48;43.51
79645;BME280;69117;47.148;18.954;2023-04-16T12:40:53;100415.66;;;21.54;43.35
79645;BME280;69117;47.148;18.954;2023-04-16T12:44:04;100408.78;;;21.20;43.30
79645;BME280;69117;47.148;18.954;2023-04-16T12:47:07;100395.06;;;20.63;43.56
79645;BME280;69117;47.148;18.954;2023-04-16T12:50:09;100406.44;;;20.39;45.25
79645;BME280;69117;47.148;18.954;2023-04-16T12:53:11;100393.47;;;20.16;44.88
79645;BME280;69117;47.148;18.954;2023-04-16T12:56:12;100399.66;;;20.09;47.08
79645;BME280;69117;47.148;18.954;2023-04-16T12:59:14;100396.13;;;19.96;46.38
79645;BME280;69117;47.148;18.954;2023-04-16T13:02:17;100388.25;;;19.87;46.36
79645;BME280;69117;47.148;18.954;2023-04-16T13:05:19;100392.81;;;19.87;45.15
79645;BME280;69117;47.148;18.954;2023-04-16T13:08:21;100398.31;;;19.04;45.04
79645;BME280;69117;47.148;18.954;2023-04-16T13:11:23;100382.88;;;19.81;45.86
79645;BME280;69117;47.148;18.954;2023-04-16T13:14:24;100387.16;;;19.49;46.37
79645;BME280;69117;47.148;18.954;2023-04-16T13:17:26;100375.41;;;19.56;46.45
79645;BME280;69117;47.148;18.954;2023-04-16T13:20:28;100370.13;;;18.73;46.21
79645;BME280;69117;47.148;18.954;2023-04-16T13:23:30;100371.84;;;18.25;48.26
79645;BME280;69117;47.148;18.954;2023-04-16T13:26:31;100379.69;;;17.83;49.50
79645;BME280;69117;47.148;18.954;2023-04-16T13:29:33;100369.31;;;17.74;49.18
79645;BME280;69117;47.148;18.954;2023-04-16T13:32:37;100365.16;;;17.50;50.22
79645;BME280;69117;47.148;18.954;2023-04-16T13:35:38;100333.78;;;17.01;51.17
79645;BME280;69117;47.148;18.954;2023-04-16T13:38:40;100353.69;;;16.98;51.62
79645;BME280;69117;47.148;18.954;2023-04-16T13:41:42;100366.94;;;16.91;52.98
79645;BME280;69117;47.148;18.954;2023-04-16T13:44:44;100355.59;;;16.60;53.43
79645;BME280;69117;47.148;18.954;2023-04-16T13:47:49;100362.03;;;16.65;54.40
79645;BME280;69117;47.148;18.954;2023-04-16T13:50:50;100371.41;;;16.46;54.46
79645;BME280;69117;47.148;18.954;2023-04-16T13:53:53;100352.06;;;16.30;55.10
79645;BME280;69117;47.148;18.954;2023-04-16T13:56:56;100353.84;;;16.37;56.34
79645;BME280;69117;47.148;18.954;2023-04-16T14:00:07;100364.66;;;16.36;56.23
79645;BME280;69117;47.148;18.954;2023-04-16T14:03:13;100364.22;;;16.47;56.23
79645;BME280;69117;47.148;18.954;2023-04-16T14:06:15;100354.81;;;16.36;57.27
79645;BME280;69117;47.148;18.954;2023-04-16T14:09:18;100364.00;;;16.34;56.29
79645;BME280;69117;47.148;18.954;2023-04-16T14:12:19;100346.34;;;16.18;56.40
79645;BME280;69117;47.148;18.954;2023-04-16T14:15:21;100341.09;;;16.24;56.70
79645;BME280;69117;47.148;18.954;2023-04-16T14:18:23;100360.81;;;16.38;55.65
79645;BME280;69117;47.148;18.954;2023-04-16T14:21:25;100361.84;;;16.67;55.13
79645;BME280;69117;47.148;18.954;2023-04-16T14:24:27;100358.63;;;17.01;54.76
79645;BME280;69117;47.148;18.954;2023-04-16T14:27:29;100356.50;;;17.11;53.99
79645;BME280;69117;47.148;18.954;2023-04-16T14:30:31;100336.72;;;17.06;53.78
79645;BME280;69117;47.148;18.954;2023-04-16T14:33:33;100353.50;;;17.57;52.47
79645;BME280;69117;47.148;18.954;2023-04-16T14:36:35;100348.09;;;17.51;52.87
79645;BME280;69117;47.148;18.954;2023-04-16T14:39:37;100354.31;;;17.36;53.43
79645;BME280;69117;47.148;18.954;2023-04-16T14:42:39;100346.81;;;17.25;52.35
79645;BME280;69117;47.148;18.954;2023-04-16T14:45:41;100339.00;;;17.09;53.22
79645;BME280;69117;47.148;18.954;2023-04-16T14:48:43;100324.78;;;16.87;53.36
79645;BME280;69117;47.148;18.954;2023-04-16T14:51:44;100347.22;;;17.07;52.63
79645;BME280;69117;47.148;18.954;2023-04-16T14:54:47;100340.00;;;17.23;52.78
79645;BME280;69117;47.148;18.954;2023-04-16T14:57:48;100338.41;;;16.92;51.76
79645;BME280;69117;47.148;18.954;2023-04-16T15:00:50;100328.56;;;16.92;52.17
79645;BME280;69117;47.148;18.954;2023-04-16T15:03:51;100310.22;;;16.75;49.11
79645;BME280;69117;47.148;18.954;2023-04-16T15:06:56;100321.38;;;16.93;51.72
79645;BME280;69117;47.148;18.954;2023-04-16T15:10:01;100320.09;;;16.74;49.47
79645;BME280;69117;47.148;18.954;2023-04-16T15:13:03;100304.16;;;16.96;50.80
79645;BME280;69117;47.148;18.954;2023-04-16T15:16:04;100312.84;;;16.83;49.44
79645;BME280;69117;47.148;18.954;2023-04-16T15:19:06;100324.69;;;16.95;50.08
79645;BME280;69117;47.148;18.954;2023-04-16T15:22:08;100335.53;;;16.93;50.78
79645;BME280;69117;47.148;18.954;2023-04-16T15:25:09;100343.19;;;16.82;51.89
79645;BME280;69117;47.148;18.954;2023-04-16T15:28:11;100336.19;;;16.96;51.34
79645;BME280;69117;47.148;18.954;2023-04-16T15:31:13;100327.88;;;16.61;50.66
79645;BME280;69117;47.148;18.954;2023-04-16T15:34:14;100349.44;;;16.74;49.90
79645;BME280;69117;47.148;18.954;2023-04-16T15:37:16;100316.75;;;16.72;49.30
79645;BME280;69117;47.148;18.954;2023-04-16T15:40:17;100339.25;;;16.78;50.88
79645;BME280;69117;47.148;18.954;2023-04-16T15:43:20;100332.34;;;16.83;49.61
79645;BME280;69117;47.148;18.954;2023-04-16T15:46:22;100352.66;;;16.84;50.57
79645;BME280;69117;47.148;18.954;2023-04-16T15:49:24;100355.16;;;16.86;51.53
79645;BME280;69117;47.148;18.954;2023-04-16T15:52:26;100352.19;;;16.51;50.02
79645;BME280;69117;47.148;18.954;2023-04-16T15:55:28;100356.31;;;16.54;51.64